Aviation Digital Data Service (ADDS)

Output produced by METARs form (2050 UTC 24 June 2017)
found at http://www.aviationweather.gov/adds/metars/
 
OSLK 242000Z 08004KT CAVOK 23/19 Q1010
OSLK 2418/2518 12008KT CAVOK 
     TEMPO 2506/2518 23012KT
       
OSDI 242000Z 21010KT CAVOK 25/11 Q1012
TAF OSDI 2418/2524 VRB03KT CAVOK 
     TEMPO 2509/2518 22010KT CAVOK
       
OSKL 241900Z 33010KT CAVOK 28/00 Q1005